sensor_id;sensor_type;location;lat;lon;timestamp;temperature;humidity
41058;DHT22;66768;48.884;2.258;2023-02-11T00:02:19;9.00;99.90
41058;DHT22;66768;48.884;2.258;2023-02-11T00:04:46;9.00;99.90
41058;DHT22;66768;48.884;2.258;2023-02-11T00:07:14;9.00;99.90
41058;DHT22;66768;48.884;2.258;2023-02-11T00:09:41;8.90;99.90
41058;DHT22;66768;48.884;2.258;2023-02-11T00:12:08;8.90;99.90
41058;DHT22;66768;48.884;2.258;2023-02-11T00:14:35;8.90;99.90
41058;DHT22;66768;48.884;2.258;2023-02-11T00:17:02;8.90;99.90
41058;DHT22;66768;48.884;2.258;2023-02-11T00:19:29;8.90;99.90
41058;DHT22;66768;48.884;2.258;2023-02-11T00:21:55;8.80;99.90
41058;DHT22;66768;48.884;2.258;2023-02-11T00:24:24;8.80;99.90
41058;DHT22;66768;48.884;2.258;2023-02-11T00:26:51;8.70;99.90
41058;DHT22;66768;48.884;2.258;2023-02-11T00:29:18;8.80;99.90
41058;DHT22;66768;48.884;2.258;2023-02-11T00:31:45;8.80;99.90
41058;DHT22;66768;48.884;2.258;2023-02-11T00:34:12;8.70;99.90
41058;DHT22;66768;48.884;2.258;2023-02-11T00:36:39;8.70;99.90
41058;DHT22;66768;48.884;2.258;2023-02-11T00:39:06;8.70;99.90
41058;DHT22;66768;48.884;2.258;2023-02-11T00:41:34;8.70;99.90
41058;DHT22;66768;48.884;2.258;2023-02-11T00:44:02;8.70;99.90
41058;DHT22;66768;48.884;2.258;2023-02-11T00:46:29;8.70;99.90
41058;DHT22;66768;48.884;2.258;2023-02-11T00:48:55;8.70;99.90
41058;DHT22;66768;48.884;2.258;2023-02-11T00:51:23;8.60;99.90
41058;DHT22;66768;48.884;2.258;2023-02-11T00:53:50;8.60;99.90
41058;DHT22;66768;48.884;2.258;2023-02-11T00:56:16;8.60;99.90
41058;DHT22;66768;48.884;2.258;2023-02-11T00:58:45;8.60;99.90
41058;DHT22;66768;48.884;2.258;2023-02-11T01:01:12;8.60;99.90
41058;DHT22;66768;48.884;2.258;2023-02-11T01:03:39;8.60;99.90
41058;DHT22;66768;48.884;2.258;2023-02-11T01:06:08;8.50;99.90
41058;DHT22;66768;48.884;2.258;2023-02-11T01:08:35;8.50;99.90
41058;DHT22;66768;48.884;2.258;2023-02-11T01:11:05;8.40;99.90
41058;DHT22;66768;48.884;2.258;2023-02-11T01:13:35;8.40;99.90
41058;DHT22;66768;48.884;2.258;2023-02-11T01:16:05;8.40;99.90
41058;DHT22;66768;48.884;2.258;2023-02-11T01:18:33;8.30;99.90
41058;DHT22;66768;48.884;2.258;2023-02-11T01:21:00;8.40;99.90
41058;DHT22;66768;48.884;2.258;2023-02-11T01:23:26;8.30;99.90
41058;DHT22;66768;48.884;2.258;2023-02-11T01:25:53;8.30;99.90
41058;DHT22;66768;48.884;2.258;2023-02-11T01:28:21;8.30;99.90
41058;DHT22;66768;48.884;2.258;2023-02-11T01:30:50;8.30;99.90
41058;DHT22;66768;48.884;2.258;2023-02-11T01:33:18;8.30;99.90
41058;DHT22;66768;48.884;2.258;2023-02-11T01:35:45;8.30;99.90
41058;DHT22;66768;48.884;2.258;2023-02-11T01:38:19;8.30;99.90
41058;DHT22;66768;48.884;2.258;2023-02-11T01:40:47;8.30;99.90
41058;DHT22;66768;48.884;2.258;2023-02-11T01:43:14;8.30;99.90
41058;DHT22;66768;48.884;2.258;2023-02-11T01:45:58;8.30;99.90
41058;DHT22;66768;48.884;2.258;2023-02-11T01:48:30;8.30;99.90
41058;DHT22;66768;48.884;2.258;2023-02-11T01:51:01;8.20;99.90
41058;DHT22;66768;48.884;2.258;2023-02-11T01:53:29;8.30;99.90
41058;DHT22;66768;48.884;2.258;2023-02-11T01:56:15;8.30;99.90
41058;DHT22;66768;48.884;2.258;2023-02-11T01:59:05;8.30;99.90
41058;DHT22;66768;48.884;2.258;2023-02-11T02:01:33;8.30;99.90
41058;DHT22;66768;48.884;2.258;2023-02-11T02:04:04;8.30;99.90
41058;DHT22;66768;48.884;2.258;2023-02-11T02:06:34;8.30;99.90
41058;DHT22;66768;48.884;2.258;2023-02-11T02:09:06;8.30;99.90
41058;DHT22;66768;48.884;2.258;2023-02-11T02:11:35;8.30;99.90
41058;DHT22;66768;48.884;2.258;2023-02-11T02:14:03;8.30;99.90
41058;DHT22;66768;48.884;2.258;2023-02-11T02:16:33;8.30;99.90
41058;DHT22;66768;48.884;2.258;2023-02-11T02:19:24;8.30;99.90
41058;DHT22;66768;48.884;2.258;2023-02-11T02:22:31;8.30;99.90
41058;DHT22;66768;48.884;2.258;2023-02-11T02:25:19;8.40;99.90
41058;DHT22;66768;48.884;2.258;2023-02-11T02:27:55;8.30;99.90
41058;DHT22;66768;48.884;2.258;2023-02-11T02:30:52;8.30;99.90
41058;DHT22;66768;48.884;2.258;2023-02-11T02:33:42;8.30;99.90
41058;DHT22;66768;48.884;2.258;2023-02-11T02:36:16;8.30;99.90
41058;DHT22;66768;48.884;2.258;2023-02-11T02:38:49;8.20;99.90
41058;DHT22;66768;48.884;2.258;2023-02-11T02:41:20;8.30;99.90
41058;DHT22;66768;48.884;2.258;2023-02-11T02:43:48;8.30;99.90
41058;DHT22;66768;48.884;2.258;2023-02-11T02:46:18;8.30;99.90
41058;DHT22;66768;48.884;2.258;2023-02-11T02:48:48;8.30;99.90
41058;DHT22;66768;48.884;2.258;2023-02-11T02:51:26;8.30;99.90
41058;DHT22;66768;48.884;2.258;2023-02-11T02:54:06;8.30;99.90
41058;DHT22;66768;48.884;2.258;2023-02-11T02:56:39;8.30;99.90
41058;DHT22;66768;48.884;2.258;2023-02-11T02:59:19;8.30;99.90
41058;DHT22;66768;48.884;2.258;2023-02-11T03:01:55;8.30;99.90
41058;DHT22;66768;48.884;2.258;2023-02-11T03:04:30;8.30;99.90
41058;DHT22;66768;48.884;2.258;2023-02-11T03:07:03;8.30;99.90
41058;DHT22;66768;48.884;2.258;2023-02-11T03:09:35;8.20;99.90
41058;DHT22;66768;48.884;2.258;2023-02-11T03:12:03;8.30;99.90
41058;DHT22;66768;48.884;2.258;2023-02-11T03:14:32;8.20;99.90
41058;DHT22;66768;48.884;2.258;2023-02-11T03:17:03;8.20;99.90
41058;DHT22;66768;48.884;2.258;2023-02-11T03:19:35;8.20;99.90
41058;DHT22;66768;48.884;2.258;2023-02-11T03:22:07;8.20;99.90
41058;DHT22;66768;48.884;2.258;2023-02-11T03:24:38;8.10;99.90
41058;DHT22;66768;48.884;2.258;2023-02-11T03:27:11;8.20;99.90
41058;DHT22;66768;48.884;2.258;2023-02-11T03:29:45;8.20;99.90
41058;DHT22;66768;48.884;2.258;2023-02-11T03:32:19;8.10;99.90
41058;DHT22;66768;48.884;2.258;2023-02-11T03:34:54;8.10;99.90
41058;DHT22;66768;48.884;2.258;2023-02-11T03:37:26;8.10;99.90
41058;DHT22;66768;48.884;2.258;2023-02-11T03:39:58;8.20;99.90
41058;DHT22;66768;48.884;2.258;2023-02-11T03:42:32;8.20;99.90
41058;DHT22;66768;48.884;2.258;2023-02-11T03:45:04;8.10;99.90
41058;DHT22;66768;48.884;2.258;2023-02-11T03:47:34;8.10;99.90
41058;DHT22;66768;48.884;2.258;2023-02-11T03:50:04;7.80;99.90
41058;DHT22;66768;48.884;2.258;2023-02-11T03:52:33;7.90;99.90
41058;DHT22;66768;48.884;2.258;2023-02-11T03:55:03;7.90;99.90
41058;DHT22;66768;48.884;2.258;2023-02-11T03:57:32;7.90;99.90
41058;DHT22;66768;48.884;2.258;2023-02-11T04:00:00;7.80;99.90
41058;DHT22;66768;48.884;2.258;2023-02-11T04:02:30;7.90;99.90
41058;DHT22;66768;48.884;2.258;2023-02-11T04:04:57;7.90;99.90
41058;DHT22;66768;48.884;2.258;2023-02-11T04:07:26;7.90;99.90
41058;DHT22;66768;48.884;2.258;2023-02-11T04:09:53;7.90;99.90
41058;DHT22;66768;48.884;2.258;2023-02-11T04:12:20;7.80;99.90
41058;DHT22;66768;48.884;2.258;2023-02-11T04:14:47;7.80;99.90
41058;DHT22;66768;48.884;2.258;2023-02-11T04:17:14;7.90;99.90
41058;DHT22;66768;48.884;2.258;2023-02-11T04:19:41;7.80;99.90
41058;DHT22;66768;48.884;2.258;2023-02-11T04:22:08;7.90;99.90
41058;DHT22;66768;48.884;2.258;2023-02-11T04:24:36;7.90;99.90
41058;DHT22;66768;48.884;2.258;2023-02-11T04:27:03;7.90;99.90
41058;DHT22;66768;48.884;2.258;2023-02-11T04:29:30;7.90;99.90
41058;DHT22;66768;48.884;2.258;2023-02-11T04:31:57;7.90;99.90
41058;DHT22;66768;48.884;2.258;2023-02-11T04:34:24;7.90;99.90
41058;DHT22;66768;48.884;2.258;2023-02-11T04:36:51;7.90;99.90
41058;DHT22;66768;48.884;2.258;2023-02-11T04:39:18;7.90;99.90
41058;DHT22;66768;48.884;2.258;2023-02-11T04:41:46;7.90;99.90
41058;DHT22;66768;48.884;2.258;2023-02-11T04:44:13;7.90;99.90
41058;DHT22;66768;48.884;2.258;2023-02-11T04:46:40;7.80;99.90
41058;DHT22;66768;48.884;2.258;2023-02-11T04:49:07;7.90;99.90
41058;DHT22;66768;48.884;2.258;2023-02-11T04:51:34;7.90;99.90
41058;DHT22;66768;48.884;2.258;2023-02-11T04:54:01;7.80;99.90
41058;DHT22;66768;48.884;2.258;2023-02-11T04:56:27;7.80;99.90
41058;DHT22;66768;48.884;2.258;2023-02-11T04:58:56;7.80;99.90
41058;DHT22;66768;48.884;2.258;2023-02-11T05:01:23;7.80;99.90
41058;DHT22;66768;48.884;2.258;2023-02-11T05:03:49;7.80;99.90
41058;DHT22;66768;48.884;2.258;2023-02-11T05:06:17;7.70;99.90
41058;DHT22;66768;48.884;2.258;2023-02-11T05:08:44;7.70;99.90
41058;DHT22;66768;48.884;2.258;2023-02-11T05:11:15;7.70;99.90
41058;DHT22;66768;48.884;2.258;2023-02-11T05:13:43;7.70;99.90
41058;DHT22;66768;48.884;2.258;2023-02-11T05:16:13;7.60;99.90
41058;DHT22;66768;48.884;2.258;2023-02-11T05:18:42;7.60;99.90
41058;DHT22;66768;48.884;2.258;2023-02-11T05:21:11;7.60;99.90
41058;DHT22;66768;48.884;2.258;2023-02-11T05:23:39;7.60;99.90
41058;DHT22;66768;48.884;2.258;2023-02-11T05:26:06;7.60;99.90
41058;DHT22;66768;48.884;2.258;2023-02-11T05:28:33;7.50;99.90
41058;DHT22;66768;48.884;2.258;2023-02-11T05:31:00;7.60;99.90
41058;DHT22;66768;48.884;2.258;2023-02-11T05:33:29;7.50;99.90
41058;DHT22;66768;48.884;2.258;2023-02-11T05:35:57;7.40;99.90
41058;DHT22;66768;48.884;2.258;2023-02-11T05:38:25;7.50;99.90
41058;DHT22;66768;48.884;2.258;2023-02-11T05:40:52;7.50;99.90
41058;DHT22;66768;48.884;2.258;2023-02-11T05:43:18;7.40;99.90
41058;DHT22;66768;48.884;2.258;2023-02-11T05:45:45;7.40;99.90
41058;DHT22;66768;48.884;2.258;2023-02-11T05:48:12;7.40;99.90
41058;DHT22;66768;48.884;2.258;2023-02-11T05:50:41;7.30;99.90
41058;DHT22;66768;48.884;2.258;2023-02-11T05:53:08;7.40;99.90
41058;DHT22;66768;48.884;2.258;2023-02-11T05:55:35;7.40;99.90
41058;DHT22;66768;48.884;2.258;2023-02-11T05:58:02;7.30;99.90
41058;DHT22;66768;48.884;2.258;2023-02-11T06:00:29;7.40;99.90
41058;DHT22;66768;48.884;2.258;2023-02-11T06:02:56;7.40;99.90
41058;DHT22;66768;48.884;2.258;2023-02-11T06:05:24;7.40;99.90
41058;DHT22;66768;48.884;2.258;2023-02-11T06:07:52;7.40;99.90
41058;DHT22;66768;48.884;2.258;2023-02-11T06:10:19;7.30;99.90
41058;DHT22;66768;48.884;2.258;2023-02-11T06:12:46;7.40;99.90
41058;DHT22;66768;48.884;2.258;2023-02-11T06:15:13;7.30;99.90
41058;DHT22;66768;48.884;2.258;2023-02-11T06:17:40;7.40;99.90
41058;DHT22;66768;48.884;2.258;2023-02-11T06:20:08;7.40;99.90
41058;DHT22;66768;48.884;2.258;2023-02-11T06:22:35;7.40;99.90
41058;DHT22;66768;48.884;2.258;2023-02-11T06:25:04;7.30;99.90
41058;DHT22;66768;48.884;2.258;2023-02-11T06:27:31;7.30;99.90
41058;DHT22;66768;48.884;2.258;2023-02-11T06:29:58;7.20;99.90
41058;DHT22;66768;48.884;2.258;2023-02-11T06:32:26;7.20;99.90
41058;DHT22;66768;48.884;2.258;2023-02-11T06:34:53;7.20;99.90
41058;DHT22;66768;48.884;2.258;2023-02-11T06:37:20;7.10;99.90
41058;DHT22;66768;48.884;2.258;2023-02-11T06:39:47;7.20;99.90
41058;DHT22;66768;48.884;2.258;2023-02-11T06:42:15;7.20;99.90
41058;DHT22;66768;48.884;2.258;2023-02-11T06:44:42;7.10;99.90
41058;DHT22;66768;48.884;2.258;2023-02-11T06:47:11;7.20;99.90
41058;DHT22;66768;48.884;2.258;2023-02-11T06:49:39;7.10;99.90
41058;DHT22;66768;48.884;2.258;2023-02-11T06:52:06;7.20;99.90
41058;DHT22;66768;48.884;2.258;2023-02-11T06:54:33;7.20;99.90
41058;DHT22;66768;48.884;2.258;2023-02-11T06:57:00;7.20;99.90
41058;DHT22;66768;48.884;2.258;2023-02-11T06:59:28;7.20;99.90
41058;DHT22;66768;48.884;2.258;2023-02-11T07:01:55;7.20;99.90
41058;DHT22;66768;48.884;2.258;2023-02-11T07:04:22;7.20;99.90
41058;DHT22;66768;48.884;2.258;2023-02-11T07:06:49;7.20;99.90
41058;DHT22;66768;48.884;2.258;2023-02-11T07:09:15;7.20;99.90
41058;DHT22;66768;48.884;2.258;2023-02-11T07:11:42;7.20;99.90
41058;DHT22;66768;48.884;2.258;2023-02-11T07:14:09;7.30;99.90
41058;DHT22;66768;48.884;2.258;2023-02-11T07:16:39;7.30;99.90
41058;DHT22;66768;48.884;2.258;2023-02-11T07:19:06;7.30;99.90
41058;DHT22;66768;48.884;2.258;2023-02-11T07:21:33;7.20;99.90
41058;DHT22;66768;48.884;2.258;2023-02-11T07:24:00;7.30;99.90
41058;DHT22;66768;48.884;2.258;2023-02-11T07:26:27;7.30;99.90
41058;DHT22;66768;48.884;2.258;2023-02-11T07:28:54;7.20;99.90
41058;DHT22;66768;48.884;2.258;2023-02-11T07:31:23;7.10;99.90
41058;DHT22;66768;48.884;2.258;2023-02-11T07:33:53;7.20;99.90
41058;DHT22;66768;48.884;2.258;2023-02-11T07:36:21;7.20;99.90
41058;DHT22;66768;48.884;2.258;2023-02-11T07:38:49;7.20;99.90
41058;DHT22;66768;48.884;2.258;2023-02-11T07:41:18;7.00;99.90
41058;DHT22;66768;48.884;2.258;2023-02-11T07:43:45;7.10;99.90
41058;DHT22;66768;48.884;2.258;2023-02-11T07:46:15;7.10;99.90
41058;DHT22;66768;48.884;2.258;2023-02-11T07:48:44;7.10;99.90
41058;DHT22;66768;48.884;2.258;2023-02-11T07:51:13;7.10;99.90
41058;DHT22;66768;48.884;2.258;2023-02-11T07:53:41;7.10;99.90
41058;DHT22;66768;48.884;2.258;2023-02-11T07:56:09;7.00;99.90
41058;DHT22;66768;48.884;2.258;2023-02-11T07:58:37;6.90;99.90
41058;DHT22;66768;48.884;2.258;2023-02-11T08:01:08;6.90;99.90
41058;DHT22;66768;48.884;2.258;2023-02-11T08:03:36;6.90;99.90
41058;DHT22;66768;48.884;2.258;2023-02-11T08:06:04;7.00;99.90
41058;DHT22;66768;48.884;2.258;2023-02-11T08:08:32;7.00;99.90
41058;DHT22;66768;48.884;2.258;2023-02-11T08:11:05;7.00;99.90
41058;DHT22;66768;48.884;2.258;2023-02-11T08:13:32;7.10;99.90
41058;DHT22;66768;48.884;2.258;2023-02-11T08:16:02;7.10;99.90
41058;DHT22;66768;48.884;2.258;2023-02-11T08:18:29;7.10;99.90
41058;DHT22;66768;48.884;2.258;2023-02-11T08:20:56;7.10;99.90
41058;DHT22;66768;48.884;2.258;2023-02-11T08:23:23;7.10;99.90
41058;DHT22;66768;48.884;2.258;2023-02-11T08:25:51;7.20;99.90
41058;DHT22;66768;48.884;2.258;2023-02-11T08:28:18;7.20;99.90
41058;DHT22;66768;48.884;2.258;2023-02-11T08:30:45;7.20;99.90
41058;DHT22;66768;48.884;2.258;2023-02-11T08:33:12;7.20;99.90
41058;DHT22;66768;48.884;2.258;2023-02-11T08:35:38;7.20;99.90
41058;DHT22;66768;48.884;2.258;2023-02-11T08:38:05;7.30;99.90
41058;DHT22;66768;48.884;2.258;2023-02-11T08:40:33;7.30;99.90
41058;DHT22;66768;48.884;2.258;2023-02-11T08:43:01;7.40;99.90
41058;DHT22;66768;48.884;2.258;2023-02-11T08:45:28;7.50;99.90
41058;DHT22;66768;48.884;2.258;2023-02-11T08:47:55;7.60;99.90
41058;DHT22;66768;48.884;2.258;2023-02-11T08:50:22;7.60;99.90
41058;DHT22;66768;48.884;2.258;2023-02-11T08:52:50;7.60;99.90
41058;DHT22;66768;48.884;2.258;2023-02-11T08:55:17;7.70;99.90
41058;DHT22;66768;48.884;2.258;2023-02-11T08:57:44;7.80;99.90
41058;DHT22;66768;48.884;2.258;2023-02-11T09:00:14;7.80;99.90
41058;DHT22;66768;48.884;2.258;2023-02-11T09:02:41;7.90;99.90
41058;DHT22;66768;48.884;2.258;2023-02-11T09:05:08;7.90;99.90
41058;DHT22;66768;48.884;2.258;2023-02-11T09:07:35;8.00;99.90
41058;DHT22;66768;48.884;2.258;2023-02-11T09:10:02;8.00;99.90
41058;DHT22;66768;48.884;2.258;2023-02-11T09:12:30;8.00;99.90
41058;DHT22;66768;48.884;2.258;2023-02-11T09:14:57;8.10;99.90
41058;DHT22;66768;48.884;2.258;2023-02-11T09:17:26;8.10;99.90
41058;DHT22;66768;48.884;2.258;2023-02-11T09:19:53;8.20;99.90
41058;DHT22;66768;48.884;2.258;2023-02-11T09:22:20;8.30;99.90
41058;DHT22;66768;48.884;2.258;2023-02-11T09:24:46;8.30;99.90
41058;DHT22;66768;48.884;2.258;2023-02-11T09:27:13;8.30;99.90
41058;DHT22;66768;48.884;2.258;2023-02-11T09:29:40;8.30;99.90
41058;DHT22;66768;48.884;2.258;2023-02-11T09:32:07;8.40;99.90
41058;DHT22;66768;48.884;2.258;2023-02-11T09:34:35;8.40;99.90
41058;DHT22;66768;48.884;2.258;2023-02-11T09:37:02;8.50;99.90
41058;DHT22;66768;48.884;2.258;2023-02-11T09:39:29;8.50;99.90
41058;DHT22;66768;48.884;2.258;2023-02-11T09:42:07;8.60;99.90
41058;DHT22;66768;48.884;2.258;2023-02-11T09:44:37;8.60;99.90
41058;DHT22;66768;48.884;2.258;2023-02-11T09:47:06;8.60;99.90
41058;DHT22;66768;48.884;2.258;2023-02-11T09:49:45;8.70;99.90
41058;DHT22;66768;48.884;2.258;2023-02-11T09:52:34;8.70;99.90
41058;DHT22;66768;48.884;2.258;2023-02-11T09:55:05;8.60;99.90
41058;DHT22;66768;48.884;2.258;2023-02-11T09:57:36;8.70;99.90
41058;DHT22;66768;48.884;2.258;2023-02-11T10:00:17;8.80;99.90
41058;DHT22;66768;48.884;2.258;2023-02-11T10:03:03;8.80;99.90
41058;DHT22;66768;48.884;2.258;2023-02-11T10:05:46;8.90;99.90
41058;DHT22;66768;48.884;2.258;2023-02-11T10:08:21;8.90;99.90
41058;DHT22;66768;48.884;2.258;2023-02-11T10:10:58;8.90;99.90
41058;DHT22;66768;48.884;2.258;2023-02-11T10:13:38;9.00;99.90
41058;DHT22;66768;48.884;2.258;2023-02-11T10:16:16;9.10;99.90
41058;DHT22;66768;48.884;2.258;2023-02-11T10:18:54;9.10;99.90
41058;DHT22;66768;48.884;2.258;2023-02-11T10:21:33;9.20;99.90
41058;DHT22;66768;48.884;2.258;2023-02-11T10:24:09;9.20;99.90
41058;DHT22;66768;48.884;2.258;2023-02-11T10:26:38;9.20;99.90
41058;DHT22;66768;48.884;2.258;2023-02-11T10:29:25;9.30;99.90
41058;DHT22;66768;48.884;2.258;2023-02-11T10:31:58;9.30;99.90
41058;DHT22;66768;48.884;2.258;2023-02-11T10:34:26;9.40;99.90
41058;DHT22;66768;48.884;2.258;2023-02-11T10:36:54;9.40;99.90
41058;DHT22;66768;48.884;2.258;2023-02-11T10:39:24;9.40;99.90
41058;DHT22;66768;48.884;2.258;2023-02-11T10:41:54;9.50;99.90
41058;DHT22;66768;48.884;2.258;2023-02-11T10:44:25;9.40;99.90
41058;DHT22;66768;48.884;2.258;2023-02-11T10:46:53;9.40;99.90
41058;DHT22;66768;48.884;2.258;2023-02-11T10:49:37;9.50;99.90
41058;DHT22;66768;48.884;2.258;2023-02-11T10:52:23;9.60;99.90
41058;DHT22;66768;48.884;2.258;2023-02-11T10:55:02;9.60;99.90
41058;DHT22;66768;48.884;2.258;2023-02-11T10:57:34;9.60;99.90
41058;DHT22;66768;48.884;2.258;2023-02-11T11:00:07;9.70;99.90
41058;DHT22;66768;48.884;2.258;2023-02-11T11:02:52;9.70;99.90
41058;DHT22;66768;48.884;2.258;2023-02-11T11:05:26;9.70;99.90
41058;DHT22;66768;48.884;2.258;2023-02-11T11:07:56;9.80;99.90
41058;DHT22;66768;48.884;2.258;2023-02-11T11:10:32;9.80;99.90
41058;DHT22;66768;48.884;2.258;2023-02-11T11:13:00;9.90;99.90
41058;DHT22;66768;48.884;2.258;2023-02-11T11:15:28;9.90;99.90
41058;DHT22;66768;48.884;2.258;2023-02-11T11:18:11;9.90;99.90
41058;DHT22;66768;48.884;2.258;2023-02-11T11:20:44;9.90;99.90
41058;DHT22;66768;48.884;2.258;2023-02-11T11:23:22;9.90;99.90
41058;DHT22;66768;48.884;2.258;2023-02-11T11:26:00;9.90;99.90
41058;DHT22;66768;48.884;2.258;2023-02-11T11:28:34;9.90;99.90
41058;DHT22;66768;48.884;2.258;2023-02-11T11:31:04;9.90;99.90
41058;DHT22;66768;48.884;2.258;2023-02-11T11:33:41;10.00;99.90
41058;DHT22;66768;48.884;2.258;2023-02-11T11:36:11;10.10;99.90
41058;DHT22;66768;48.884;2.258;2023-02-11T11:38:45;10.10;99.90
41058;DHT22;66768;48.884;2.258;2023-02-11T11:41:15;10.10;99.90
41058;DHT22;66768;48.884;2.258;2023-02-11T11:43:57;10.10;99.90
41058;DHT22;66768;48.884;2.258;2023-02-11T11:46:27;10.10;99.90
41058;DHT22;66768;48.884;2.258;2023-02-11T11:49:00;10.10;99.90
41058;DHT22;66768;48.884;2.258;2023-02-11T11:51:30;10.20;99.90
41058;DHT22;66768;48.884;2.258;2023-02-11T11:54:02;10.30;99.90
41058;DHT22;66768;48.884;2.258;2023-02-11T11:56:32;10.20;99.90
41058;DHT22;66768;48.884;2.258;2023-02-11T11:59:02;10.30;99.90
41058;DHT22;66768;48.884;2.258;2023-02-11T12:01:38;10.30;99.90
41058;DHT22;66768;48.884;2.258;2023-02-11T12:04:22;10.30;99.90
41058;DHT22;66768;48.884;2.258;2023-02-11T12:07:01;10.30;99.90
41058;DHT22;66768;48.884;2.258;2023-02-11T12:09:39;10.30;99.90
41058;DHT22;66768;48.884;2.258;2023-02-11T12:12:18;10.40;99.90
41058;DHT22;66768;48.884;2.258;2023-02-11T12:14:57;10.40;99.90
41058;DHT22;66768;48.884;2.258;2023-02-11T12:20:20;10.40;99.90
41058;DHT22;66768;48.884;2.258;2023-02-11T12:22:59;10.40;99.90
41058;DHT22;66768;48.884;2.258;2023-02-11T12:25:33;10.50;99.90
41058;DHT22;66768;48.884;2.258;2023-02-11T12:28:17;10.50;99.90
41058;DHT22;66768;48.884;2.258;2023-02-11T12:30:59;10.50;99.90
41058;DHT22;66768;48.884;2.258;2023-02-11T12:33:43;10.60;99.90
41058;DHT22;66768;48.884;2.258;2023-02-11T12:36:20;10.50;99.90
41058;DHT22;66768;48.884;2.258;2023-02-11T12:39:03;10.50;99.90
41058;DHT22;66768;48.884;2.258;2023-02-11T12:41:46;10.60;99.90
41058;DHT22;66768;48.884;2.258;2023-02-11T12:44:39;10.60;99.90
41058;DHT22;66768;48.884;2.258;2023-02-11T12:47:17;10.60;99.90
41058;DHT22;66768;48.884;2.258;2023-02-11T12:49:54;10.60;99.90
41058;DHT22;66768;48.884;2.258;2023-02-11T12:55:18;10.70;99.90
41058;DHT22;66768;48.884;2.258;2023-02-11T12:57:49;10.60;99.90
41058;DHT22;66768;48.884;2.258;2023-02-11T13:00:19;10.80;99.90
41058;DHT22;66768;48.884;2.258;2023-02-11T13:02:53;10.80;99.90
41058;DHT22;66768;48.884;2.258;2023-02-11T13:05:26;10.80;99.90
41058;DHT22;66768;48.884;2.258;2023-02-11T13:07:58;10.80;99.90
41058;DHT22;66768;48.884;2.258;2023-02-11T13:10:32;10.90;99.90
41058;DHT22;66768;48.884;2.258;2023-02-11T13:13:04;10.90;99.90
41058;DHT22;66768;48.884;2.258;2023-02-11T13:15:45;10.90;99.90
41058;DHT22;66768;48.884;2.258;2023-02-11T13:18:21;10.80;99.90
41058;DHT22;66768;48.884;2.258;2023-02-11T13:20:54;10.90;99.90
41058;DHT22;66768;48.884;2.258;2023-02-11T13:23:28;11.00;99.90
41058;DHT22;66768;48.884;2.258;2023-02-11T13:26:01;10.90;99.90
41058;DHT22;66768;48.884;2.258;2023-02-11T13:28:39;10.90;99.90
41058;DHT22;66768;48.884;2.258;2023-02-11T13:31:09;11.00;99.90
41058;DHT22;66768;48.884;2.258;2023-02-11T13:33:39;11.10;99.90
41058;DHT22;66768;48.884;2.258;2023-02-11T13:36:24;11.10;99.90
41058;DHT22;66768;48.884;2.258;2023-02-11T13:39:00;11.10;99.90
41058;DHT22;66768;48.884;2.258;2023-02-11T13:41:37;11.10;99.90
41058;DHT22;66768;48.884;2.258;2023-02-11T13:44:22;11.00;99.90
41058;DHT22;66768;48.884;2.258;2023-02-11T13:46:54;11.00;99.90
41058;DHT22;66768;48.884;2.258;2023-02-11T13:49:24;11.00;99.90
41058;DHT22;66768;48.884;2.258;2023-02-11T13:51:53;11.10;99.90
41058;DHT22;66768;48.884;2.258;2023-02-11T13:54:30;11.00;99.90
41058;DHT22;66768;48.884;2.258;2023-02-11T13:57:32;11.10;99.90
41058;DHT22;66768;48.884;2.258;2023-02-11T14:03:21;11.10;99.90
41058;DHT22;66768;48.884;2.258;2023-02-11T14:06:13;11.10;99.90
41058;DHT22;66768;48.884;2.258;2023-02-11T14:09:04;11.10;99.90
41058;DHT22;66768;48.884;2.258;2023-02-11T14:11:45;11.10;99.90
41058;DHT22;66768;48.884;2.258;2023-02-11T14:14:21;11.10;99.90
41058;DHT22;66768;48.884;2.258;2023-02-11T14:20:39;11.10;99.90
41058;DHT22;66768;48.884;2.258;2023-02-11T14:23:24;11.10;99.90
41058;DHT22;66768;48.884;2.258;2023-02-11T14:29:07;11.10;99.90
41058;DHT22;66768;48.884;2.258;2023-02-11T14:31:42;11.10;99.90
41058;DHT22;66768;48.884;2.258;2023-02-11T14:34:30;11.10;99.90
41058;DHT22;66768;48.884;2.258;2023-02-11T14:37:15;11.10;99.90
41058;DHT22;66768;48.884;2.258;2023-02-11T14:39:56;11.10;99.90
41058;DHT22;66768;48.884;2.258;2023-02-11T14:42:25;11.10;99.90
41058;DHT22;66768;48.884;2.258;2023-02-11T14:44:56;11.20;99.90
41058;DHT22;66768;48.884;2.258;2023-02-11T14:47:28;11.10;99.90
41058;DHT22;66768;48.884;2.258;2023-02-11T14:49:56;11.10;99.90
41058;DHT22;66768;48.884;2.258;2023-02-11T14:52:27;11.10;99.90
41058;DHT22;66768;48.884;2.258;2023-02-11T14:55:05;11.10;99.90
41058;DHT22;66768;48.884;2.258;2023-02-11T14:57:38;11.10;99.90
41058;DHT22;66768;48.884;2.258;2023-02-11T15:00:16;11.00;99.90
41058;DHT22;66768;48.884;2.258;2023-02-11T15:02:44;11.10;99.90
41058;DHT22;66768;48.884;2.258;2023-02-11T15:05:19;11.10;99.90
41058;DHT22;66768;48.884;2.258;2023-02-11T15:07:48;11.10;99.90
41058;DHT22;66768;48.884;2.258;2023-02-11T15:10:18;11.10;99.90
41058;DHT22;66768;48.884;2.258;2023-02-11T15:12:46;11.00;99.90
41058;DHT22;66768;48.884;2.258;2023-02-11T15:15:15;11.00;99.90
41058;DHT22;66768;48.884;2.258;2023-02-11T15:17:43;11.00;99.90
41058;DHT22;66768;48.884;2.258;2023-02-11T15:20:19;11.00;99.90
41058;DHT22;66768;48.884;2.258;2023-02-11T15:22:52;11.10;99.90
41058;DHT22;66768;48.884;2.258;2023-02-11T15:25:20;11.10;99.90
41058;DHT22;66768;48.884;2.258;2023-02-11T15:27:49;11.20;99.90
41058;DHT22;66768;48.884;2.258;2023-02-11T15:30:23;11.20;99.90
41058;DHT22;66768;48.884;2.258;2023-02-11T15:32:52;11.20;99.90
41058;DHT22;66768;48.884;2.258;2023-02-11T15:35:23;11.20;99.90
41058;DHT22;66768;48.884;2.258;2023-02-11T15:37:54;11.20;99.90
41058;DHT22;66768;48.884;2.258;2023-02-11T15:40:23;11.10;99.90
41058;DHT22;66768;48.884;2.258;2023-02-11T15:42:53;11.10;99.90
41058;DHT22;66768;48.884;2.258;2023-02-11T15:45:23;11.10;99.90
41058;DHT22;66768;48.884;2.258;2023-02-11T15:47:56;11.10;99.90
41058;DHT22;66768;48.884;2.258;2023-02-11T15:50:26;11.10;99.90
41058;DHT22;66768;48.884;2.258;2023-02-11T15:52:55;11.10;99.90
41058;DHT22;66768;48.884;2.258;2023-02-11T15:55:22;11.10;99.90
41058;DHT22;66768;48.884;2.258;2023-02-11T15:57:53;11.20;99.90
41058;DHT22;66768;48.884;2.258;2023-02-11T16:00:23;11.10;99.90
41058;DHT22;66768;48.884;2.258;2023-02-11T16:02:51;11.10;99.90
41058;DHT22;66768;48.884;2.258;2023-02-11T16:05:26;11.10;99.90
41058;DHT22;66768;48.884;2.258;2023-02-11T16:07:55;11.10;99.90
41058;DHT22;66768;48.884;2.258;2023-02-11T16:10:24;11.10;99.90
41058;DHT22;66768;48.884;2.258;2023-02-11T16:12:55;11.10;99.90
41058;DHT22;66768;48.884;2.258;2023-02-11T16:15:41;11.10;99.90
41058;DHT22;66768;48.884;2.258;2023-02-11T16:21:14;11.10;99.90
41058;DHT22;66768;48.884;2.258;2023-02-11T16:23:49;11.10;99.90
41058;DHT22;66768;48.884;2.258;2023-02-11T16:26:23;11.10;99.90
41058;DHT22;66768;48.884;2.258;2023-02-11T16:28:52;11.10;99.90